Time;durP1;ratioP1;P1;durP2;ratioP2;P2;SDS_P1;SDS_P2;PMS_P1;PMS_P2;Temp;Humidity;BMP_temperature;BMP_pressure;BME280_temperature;BME280_humidity;BME280_pressure;Samples;Min_cycle;Max_cycle;Signal;HPM_P1;HPM_P2
2022/06/08 01:19:26;;;;;;;5.28;2.50;;;8.90;99.90;;;;;;5055291;28;20087;-83
2022/06/08 01:21:57;;;;;;;5.78;3.42;;;8.80;99.90;;;;;;5065964;28;20049;-83
2022/06/08 01:24:23;;;;;;;4.55;3.03;;;8.80;99.90;;;;;;5057589;28;20497;-83
2022/06/08 01:27:01;;;;;;;6.13;3.60;;;8.80;99.90;;;;;;5056754;28;20119;-84
2022/06/08 01:29:48;;;;;;;8.60;4.18;;;8.80;99.90;;;;;;5073331;28;20039;-83
2022/06/08 01:32:28;;;;;;;8.18;4.97;;;8.90;99.90;;;;;;5073672;28;20036;-83
2022/06/08 01:35:19;;;;;;;12.30;5.97;;;8.90;99.90;;;;;;5073747;28;20045;-83
2022/06/08 01:38:11;;;;;;;5.47;3.58;;;8.90;99.90;;;;;;5075207;28;20186;-83
2022/06/08 01:41:04;;;;;;;7.15;4.82;;;8.90;99.90;;;;;;5062027;28;20040;-83
2022/06/08 01:43:57;;;;;;;8.35;5.72;;;9.00;99.90;;;;;;5076144;28;20033;-83
2022/06/08 01:46:33;;;;;;;10.10;5.72;;;9.00;99.90;;;;;;5057945;28;20475;-83
2022/06/08 01:49:23;;;;;;;13.32;6.47;;;9.00;99.90;;;;;;5093766;28;20066;-83
2022/06/08 01:52:06;;;;;;;8.70;5.30;;;9.10;99.90;;;;;;5056928;28;20140;-82
2022/06/08 01:54:44;;;;;;;8.43;5.68;;;9.10;99.90;;;;;;5074927;28;20052;-83
2022/06/08 01:57:28;;;;;;;6.32;5.30;;;9.10;99.90;;;;;;5075147;28;20432;-82
2022/06/08 02:00:33;;;;;;;8.18;4.93;;;9.10;99.90;;;;;;5064506;28;20053;-83
2022/06/08 02:03:33;;;;;;;7.28;4.25;;;9.20;99.90;;;;;;5024593;28;20044;-83
2022/06/08 02:06:12;;;;;;;7.35;5.47;;;9.20;99.90;;;;;;5051134;28;20052;-83
2022/06/08 02:08:53;;;;;;;10.60;6.53;;;9.20;99.90;;;;;;5054376;28;20049;-83
2022/06/08 02:11:40;;;;;;;9.63;6.97;;;9.20;99.90;;;;;;5037292;28;20124;-83
2022/06/08 02:14:27;;;;;;;10.50;6.88;;;9.20;99.90;;;;;;5042844;28;20036;-83
2022/06/08 02:17:03;;;;;;;10.18;6.15;;;9.20;99.90;;;;;;5056520;28;20040;-83
2022/06/08 02:19:52;;;;;;;9.82;6.50;;;9.20;99.90;;;;;;5056646;28;20439;-83
2022/06/08 02:22:34;;;;;;;16.13;7.93;;;9.20;99.90;;;;;;5090003;28;20133;-83
2022/06/08 02:25:25;;;;;;;12.48;6.78;;;9.20;99.90;;;;;;5073197;28;20556;-83
2022/06/08 02:28:01;;;;;;;17.60;8.88;;;9.20;99.90;;;;;;5105899;28;20062;-83
2022/06/08 02:30:30;;;;;;;14.13;8.70;;;9.20;99.90;;;;;;5055960;28;20044;-82
2022/06/08 02:35:49;;;;;;;12.88;7.97;;;9.30;99.90;;;;;;5096868;22;20131;-80
2022/06/08 02:38:20;;;;;;;12.98;9.13;;;9.40;99.90;;;;;;5067349;28;20047;-81
2022/06/08 02:40:49;;;;;;;14.35;9.77;;;9.40;99.90;;;;;;5078079;28;20028;-81
2022/06/08 02:43:21;;;;;;;17.73;10.20;;;9.50;99.90;;;;;;5077402;28;20036;-81
2022/06/08 02:45:54;;;;;;;18.80;12.05;;;9.60;99.90;;;;;;5069116;28;20074;-80
2022/06/08 02:48:19;;;;;;;20.55;10.93;;;9.70;99.90;;;;;;5064331;28;20048;-80
2022/06/08 02:50:57;;;;;;;16.95;11.55;;;9.70;99.90;;;;;;5058125;28;20040;-83
2022/06/08 02:53:22;;;;;;;18.35;12.23;;;9.80;99.90;;;;;;5065288;28;20032;-82
2022/06/08 02:56:09;;;;;;;22.00;12.07;;;9.90;99.90;;;;;;5042791;28;20456;-82
2022/06/08 02:58:49;;;;;;;25.02;12.00;;;9.90;99.90;;;;;;5075672;28;20044;-84
2022/06/08 03:01:22;;;;;;;28.90;15.52;;;10.00;99.90;;;;;;5070357;28;20104;-82
2022/06/08 03:03:52;;;;;;;29.25;15.52;;;10.00;99.90;;;;;;5066885;28;20095;-81
2022/06/08 03:06:35;;;;;;;28.63;15.98;;;10.10;99.90;;;;;;5065654;28;20040;-82
2022/06/08 03:09:05;;;;;;;27.90;15.55;;;10.20;99.90;;;;;;5054310;28;20036;-80
2022/06/08 03:11:45;;;;;;;29.45;14.50;;;10.20;99.90;;;;;;5056159;28;20059;-80
2022/06/08 03:14:14;;;;;;;28.35;16.48;;;10.30;99.90;;;;;;5054691;28;20040;-80
2022/06/08 03:16:56;;;;;;;24.98;14.32;;;10.30;99.90;;;;;;5066340;28;20036;-80
2022/06/08 03:19:23;;;;;;;23.20;13.55;;;10.30;99.90;;;;;;5076681;28;20059;-79
2022/06/08 03:21:48;;;;;;;30.77;14.57;;;10.30;99.90;;;;;;5074213;28;20085;-80
2022/06/08 03:24:16;;;;;;;26.17;15.82;;;10.30;99.90;;;;;;5043788;28;20035;-80
2022/06/08 03:26:50;;;;;;;20.58;12.73;;;10.30;99.90;;;;;;5068041;28;20047;-80
2022/06/08 03:29:16;;;;;;;21.73;13.50;;;10.20;99.90;;;;;;5075847;28;20071;-79
2022/06/08 03:31:42;;;;;;;26.13;15.20;;;10.20;99.90;;;;;;5074660;28;20413;-80
2022/06/08 03:34:08;;;;;;;26.05;15.60;;;10.20;99.90;;;;;;5072125;28;20032;-80
2022/06/08 03:36:33;;;;;;;24.67;14.70;;;10.20;99.90;;;;;;5066703;28;20494;-80
2022/06/08 03:38:59;;;;;;;30.27;17.42;;;10.20;99.90;;;;;;5045316;28;20049;-82
2022/06/08 03:41:24;;;;;;;25.98;17.00;;;10.30;99.90;;;;;;5023002;28;20479;-80
2022/06/08 03:43:50;;;;;;;32.10;18.00;;;10.40;99.90;;;;;;5070857;28;20036;-80
2022/06/08 03:46:17;;;;;;;31.77;17.73;;;10.50;99.90;;;;;;5073108;28;20075;-80
2022/06/08 03:48:45;;;;;;;35.50;19.33;;;10.60;99.90;;;;;;5081820;28;20055;-80
2022/06/08 03:51:12;;;;;;;33.22;19.52;;;10.70;99.90;;;;;;5074883;28;20045;-80
2022/06/08 03:53:55;;;;;;;26.67;16.17;;;10.70;99.90;;;;;;5051501;28;20522;-80
2022/06/08 03:56:22;;;;;;;21.40;14.63;;;10.80;99.90;;;;;;5056722;28;20036;-80
2022/06/08 03:58:48;;;;;;;23.08;14.50;;;10.80;99.90;;;;;;5081442;28;20051;-80
2022/06/08 04:01:14;;;;;;;32.80;17.10;;;10.90;99.90;;;;;;5082170;28;20087;-80
2022/06/08 04:03:40;;;;;;;35.88;19.08;;;10.90;99.90;;;;;;5076889;28;20040;-80
2022/06/08 04:06:06;;;;;;;34.65;19.33;;;11.00;99.90;;;;;;5069401;28;20107;-80
2022/06/08 04:08:31;;;;;;;38.88;20.40;;;11.00;99.90;;;;;;5057118;28;20514;-80
2022/06/08 04:10:58;;;;;;;39.63;21.73;;;11.00;99.90;;;;;;5041426;28;20120;-80
2022/06/08 04:13:23;;;;;;;34.15;20.98;;;11.00;99.90;;;;;;5056233;28;20062;-80
2022/06/08 04:15:49;;;;;;;34.58;21.00;;;11.00;99.90;;;;;;5068223;28;20037;-80
2022/06/08 04:18:18;;;;;;;42.42;24.10;;;11.10;99.90;;;;;;5060978;28;20041;-80
2022/06/08 04:20:48;;;;;;;45.38;22.35;;;11.20;99.90;;;;;;5061381;28;20036;-80
2022/06/08 04:23:14;;;;;;;40.17;21.80;;;11.20;99.90;;;;;;5060342;28;20476;-80
2022/06/08 04:25:41;;;;;;;41.20;23.75;;;11.30;99.90;;;;;;5068265;28;20135;-80
2022/06/08 04:28:07;;;;;;;39.25;21.88;;;11.40;99.90;;;;;;5065713;28;20040;-80
2022/06/08 04:30:33;;;;;;;42.17;22.55;;;11.50;99.90;;;;;;5057508;28;20067;-80
2022/06/08 04:32:59;;;;;;;35.63;20.50;;;11.60;99.90;;;;;;5073336;28;20056;-81
2022/06/08 04:35:25;;;;;;;41.35;22.38;;;11.80;99.90;;;;;;5060872;28;20056;-81
2022/06/08 04:37:52;;;;;;;41.88;21.45;;;11.90;99.90;;;;;;5072760;28;20036;-80
2022/06/08 04:40:18;;;;;;;39.05;21.48;;;12.10;99.90;;;;;;5047972;28;20178;-82
2022/06/08 04:42:44;;;;;;;35.95;21.35;;;12.30;99.90;;;;;;5061063;28;20043;-82
2022/06/08 04:45:11;;;;;;;31.60;18.73;;;12.50;99.90;;;;;;5067075;28;20363;-81
2022/06/08 04:47:37;;;;;;;35.72;21.65;;;12.70;99.90;;;;;;5058324;28;20438;-81
2022/06/08 04:50:03;;;;;;;34.67;22.08;;;12.90;99.90;;;;;;5046996;28;20051;-81
2022/06/08 04:52:30;;;;;;;30.30;19.08;;;13.00;99.90;;;;;;5080717;28;20068;-81
2022/06/08 04:54:55;;;;;;;31.75;19.35;;;13.10;99.90;;;;;;5069513;28;20509;-80
2022/06/08 04:57:21;;;;;;;26.90;17.40;;;13.10;99.90;;;;;;5069525;28;20029;-81
2022/06/08 04:59:46;;;;;;;26.40;16.27;;;13.10;99.90;;;;;;5046216;28;20449;-82
2022/06/08 05:02:42;;;;;;;24.00;16.98;;;13.20;99.90;;;;;;5044362;28;20085;-81
2022/06/08 05:04:57;;;;;;;25.48;17.45;;;13.20;99.90;;;;;;5062993;28;20051;-82
2022/06/08 05:07:23;;;;;;;24.88;16.40;;;13.20;99.90;;;;;;5081851;28;20040;-82
2022/06/08 05:09:48;;;;;;;26.40;17.63;;;13.20;99.90;;;;;;5045359;28;20127;-85
2022/06/08 05:12:14;;;;;;;23.00;16.48;;;13.20;99.90;;;;;;5053563;28;20036;-83
2022/06/08 05:14:40;;;;;;;23.38;16.85;;;13.30;99.90;;;;;;5062339;28;20037;-82
2022/06/08 05:17:06;;;;;;;25.02;16.13;;;13.30;99.90;;;;;;5046861;28;20119;-84
2022/06/08 05:19:31;;;;;;;27.17;15.98;;;13.40;99.90;;;;;;5061211;28;20076;-83
2022/06/08 05:21:57;;;;;;;25.83;15.55;;;13.50;99.90;;;;;;5060246;28;20051;-85
2022/06/08 05:24:23;;;;;;;27.42;16.80;;;13.60;99.90;;;;;;5042177;28;20040;-83
2022/06/08 05:26:48;;;;;;;23.17;15.60;;;13.60;99.90;;;;;;5025106;28;20041;-84
2022/06/08 05:29:14;;;;;;;27.00;16.75;;;13.60;99.90;;;;;;5007861;28;20052;-83
2022/06/08 05:31:40;;;;;;;22.38;15.65;;;13.60;99.90;;;;;;5024546;28;20280;-84
2022/06/08 05:34:06;;;;;;;24.73;17.00;;;13.60;99.90;;;;;;5022945;28;20036;-83
2022/06/08 05:36:32;;;;;;;27.52;16.73;;;13.60;99.90;;;;;;5039544;28;20041;-83
2022/06/08 05:38:58;;;;;;;26.77;18.40;;;13.60;99.90;;;;;;5020234;28;20060;-85
2022/06/08 05:41:24;;;;;;;32.35;18.05;;;13.60;99.90;;;;;;5034821;28;20049;-85
2022/06/08 05:43:49;;;;;;;27.42;17.88;;;13.70;99.90;;;;;;5034681;28;20381;-85
2022/06/08 05:46:16;;;;;;;25.40;18.35;;;13.70;99.90;;;;;;5038635;28;20109;-85
2022/06/08 05:48:43;;;;;;;26.77;16.67;;;13.80;99.90;;;;;;5036414;28;20397;-85
2022/06/08 05:51:09;;;;;;;26.92;18.52;;;13.80;99.90;;;;;;5036224;28;20404;-85
2022/06/08 05:53:35;;;;;;;33.20;18.63;;;14.00;99.90;;;;;;5035603;28;20076;-86
2022/06/08 05:56:01;;;;;;;30.05;17.92;;;14.10;99.90;;;;;;5050746;28;20044;-85
2022/06/08 05:58:27;;;;;;;30.33;19.23;;;14.20;99.90;;;;;;5039693;28;20033;-86
2022/06/08 06:00:52;;;;;;;27.48;18.13;;;14.40;99.90;;;;;;5055632;28;20139;-85
2022/06/08 06:03:18;;;;;;;26.88;18.48;;;14.50;99.90;;;;;;5054894;28;20127;-85
2022/06/08 06:05:44;;;;;;;26.92;17.15;;;14.70;99.90;;;;;;5055423;28;20043;-84
2022/06/08 06:08:10;;;;;;;25.08;19.75;;;14.80;99.90;;;;;;5055821;28;20045;-84
2022/06/08 06:10:39;;;;;;;23.02;15.85;;;14.90;99.90;;;;;;5054818;28;20036;-85
2022/06/08 06:13:05;;;;;;;29.60;18.55;;;14.90;99.90;;;;;;5038845;28;20047;-84
2022/06/08 06:15:31;;;;;;;25.98;17.35;;;15.00;99.90;;;;;;5022851;28;20076;-84
2022/06/08 06:17:57;;;;;;;25.63;19.00;;;15.10;99.90;;;;;;5056932;28;20506;-84
2022/06/08 06:20:23;;;;;;;26.10;17.02;;;15.20;99.90;;;;;;5036738;28;20033;-84
2022/06/08 06:22:49;;;;;;;25.83;18.25;;;15.20;99.90;;;;;;5021038;28;20029;-84
2022/06/08 06:25:15;;;;;;;24.67;16.30;;;15.30;99.90;;;;;;5043256;28;20494;-83
2022/06/08 06:27:40;;;;;;;29.05;17.23;;;15.40;99.90;;;;;;5040822;28;20048;-83
2022/06/08 06:30:07;;;;;;;25.05;17.27;;;15.70;99.90;;;;;;5042969;28;20049;-84
2022/06/08 06:32:35;;;;;;;25.63;17.88;;;16.10;99.90;;;;;;5041384;28;20067;-82
2022/06/08 06:35:02;;;;;;;21.40;15.45;;;16.40;99.90;;;;;;5040757;28;20048;-84
2022/06/08 06:37:29;;;;;;;21.17;14.75;;;16.60;99.90;;;;;;5039789;28;20037;-84
2022/06/08 06:39:55;;;;;;;22.30;15.63;;;16.90;99.90;;;;;;5040574;28;20098;-83
2022/06/08 06:42:24;;;;;;;20.23;14.43;;;17.20;99.90;;;;;;5023066;28;20036;-84
2022/06/08 06:44:51;;;;;;;19.00;14.73;;;17.30;99.90;;;;;;5023873;28;20048;-84
2022/06/08 06:47:17;;;;;;;17.75;12.02;;;17.30;99.90;;;;;;5055784;28;20036;-83
2022/06/08 06:49:43;;;;;;;16.35;12.45;;;17.20;99.90;;;;;;5056868;28;20032;-85
2022/06/08 06:52:13;;;;;;;16.13;12.23;;;17.10;99.90;;;;;;5056884;28;20098;-84
2022/06/08 06:54:40;;;;;;;15.82;12.18;;;17.20;99.90;;;;;;5055897;28;20036;-83
2022/06/08 06:57:06;;;;;;;14.98;12.25;;;17.20;99.90;;;;;;5055259;28;20060;-83
2022/06/08 06:59:32;;;;;;;22.77;13.98;;;17.30;99.90;;;;;;5044780;28;20044;-83
2022/06/08 07:01:58;;;;;;;14.77;10.93;;;17.50;99.90;;;;;;5061096;28;20084;-84
2022/06/08 07:04:24;;;;;;;14.90;11.73;;;17.80;99.90;;;;;;5059803;28;20551;-83
2022/06/08 07:06:50;;;;;;;17.58;12.45;;;18.10;99.90;;;;;;5061879;28;20036;-84
2022/06/08 07:09:16;;;;;;;14.32;10.90;;;18.30;99.90;;;;;;5062373;28;20044;-85
2022/06/08 07:11:41;;;;;;;17.42;13.38;;;18.40;99.90;;;;;;5060744;28;20511;-83
2022/06/08 07:14:14;;;;;;;20.85;11.88;;;18.60;99.90;;;;;;5048829;28;20044;-84
2022/06/08 07:16:40;;;;;;;15.57;11.65;;;18.70;99.90;;;;;;5067756;28;20036;-83
2022/06/08 07:19:08;;;;;;;19.45;13.25;;;18.80;99.90;;;;;;5061533;28;20044;-83
2022/06/08 07:21:34;;;;;;;12.45;10.07;;;19.00;99.90;;;;;;5061906;28;20071;-82
2022/06/08 07:23:59;;;;;;;12.38;10.50;;;19.00;99.90;;;;;;5061705;28;20090;-83
2022/06/08 07:26:25;;;;;;;12.55;9.30;;;19.20;99.90;;;;;;5062248;28;20068;-83
2022/06/08 07:28:55;;;;;;;13.55;9.13;;;19.50;99.90;;;;;;5062639;28;20036;-83
2022/06/08 07:31:22;;;;;;;9.63;8.35;;;19.70;99.90;;;;;;5061823;28;20119;-83
2022/06/08 07:33:48;;;;;;;11.35;8.88;;;19.90;99.90;;;;;;5061741;28;20044;-83
2022/06/08 07:36:15;;;;;;;10.95;8.23;;;20.10;99.90;;;;;;5065423;28;20121;-83
2022/06/08 07:38:41;;;;;;;9.98;8.70;;;20.10;99.90;;;;;;5064728;28;20502;-83
2022/06/08 07:41:06;;;;;;;9.35;7.70;;;20.10;99.90;;;;;;5064480;28;20040;-82
2022/06/08 07:43:32;;;;;;;11.05;7.70;;;20.20;99.90;;;;;;5047781;28;20041;-82
2022/06/08 07:45:58;;;;;;;11.82;7.40;;;20.30;99.90;;;;;;5054990;28;20045;-83
2022/06/08 07:51:09;;;;;;;6.53;5.60;;;20.50;99.90;;;;;;5043829;28;20490;-82
2022/06/08 07:53:34;;;;;;;9.85;6.85;;;20.50;99.90;;;;;;5043185;28;20048;-83
2022/06/08 07:56:00;;;;;;;9.00;5.63;;;20.70;99.90;;;;;;5043144;28;20126;-84
2022/06/08 07:58:26;;;;;;;5.22;4.35;;;20.80;99.90;;;;;;5026060;28;20143;-83
2022/06/08 08:00:53;;;;;;;5.18;4.20;;;21.00;99.90;;;;;;5043989;28;20032;-83
2022/06/08 08:03:19;;;;;;;5.32;3.70;;;21.10;99.90;;;;;;5042540;28;20167;-83
2022/06/08 08:05:46;;;;;;;6.18;4.72;;;21.20;99.90;;;;;;5031429;28;20127;-84
2022/06/08 08:08:13;;;;;;;4.38;3.13;;;21.40;99.90;;;;;;5064348;28;20092;-82
2022/06/08 08:10:39;;;;;;;3.47;2.88;;;21.50;99.90;;;;;;5064061;28;20048;-84
2022/06/08 08:13:07;;;;;;;4.43;3.00;;;21.70;99.90;;;;;;5062458;28;20040;-83
2022/06/08 08:15:32;;;;;;;5.68;2.58;;;21.80;99.90;;;;;;5062124;28;20045;-83
2022/06/08 08:17:58;;;;;;;5.32;2.95;;;22.00;99.90;;;;;;5062826;28;20036;-85
2022/06/08 08:20:26;;;;;;;4.47;2.95;;;22.10;99.90;;;;;;5063692;28;20036;-83
2022/06/08 08:22:53;;;;;;;5.10;2.28;;;22.20;99.90;;;;;;5061121;28;20083;-83
2022/06/08 08:25:18;;;;;;;3.08;1.50;;;22.20;99.90;;;;;;5058769;28;20476;-84
2022/06/08 08:27:45;;;;;;;2.45;1.30;;;22.20;99.90;;;;;;5038877;28;20335;-83
2022/06/08 08:30:14;;;;;;;2.95;1.70;;;22.20;99.90;;;;;;5037310;28;20080;-84
2022/06/08 08:32:40;;;;;;;2.60;1.95;;;22.20;99.90;;;;;;5020137;28;20131;-83
2022/06/08 08:35:07;;;;;;;5.00;2.75;;;22.50;99.90;;;;;;5037520;28;20037;-83
2022/06/08 08:37:32;;;;;;;4.97;2.05;;;22.70;99.90;;;;;;5042106;28;20048;-84
2022/06/08 08:39:58;;;;;;;3.08;1.25;;;22.90;99.90;;;;;;5057160;28;20037;-85
2022/06/08 08:42:25;;;;;;;1.55;0.80;;;23.00;99.90;;;;;;5057550;28;20041;-83
2022/06/08 08:45:02;;;;;;;2.20;1.38;;;23.20;99.90;;;;;;5058758;28;20042;-83
2022/06/08 08:47:35;;;;;;;2.95;1.65;;;23.40;99.90;;;;;;5023940;28;20479;-83
2022/06/08 08:50:30;;;;;;;4.88;1.85;;;23.50;99.90;;;;;;5037796;28;20143;-84
2022/06/08 08:53:04;;;;;;;1.85;1.05;;;23.90;99.90;;;;;;5024342;28;20041;-84
2022/06/08 08:55:58;;;;;;;2.20;0.85;;;24.10;99.90;;;;;;5038113;28;20045;-84
2022/06/08 08:58:39;;;;;;;2.85;1.73;;;24.10;99.90;;;;;;5044794;28;20056;-83
2022/06/08 09:01:19;;;;;;;2.08;0.60;;;24.00;99.90;;;;;;5040952;28;20134;-84
2022/06/08 09:03:49;;;;;;;1.73;0.95;;;23.80;99.90;;;;;;5056221;28;20051;-85
2022/06/08 09:06:19;;;;;;;2.78;1.27;;;23.70;99.90;;;;;;5047927;28;20041;-85
2022/06/08 09:08:48;;;;;;;3.22;2.05;;;23.60;99.90;;;;;;5035526;28;20696;-84
2022/06/08 09:11:22;;;;;;;2.95;1.98;;;23.70;99.90;;;;;;5035429;28;20049;-85
2022/06/08 09:14:02;;;;;;;3.42;2.50;;;23.80;99.90;;;;;;5035197;28;20048;-83
2022/06/08 09:16:39;;;;;;;3.13;2.08;;;23.90;99.90;;;;;;5044095;28;20040;-84
2022/06/08 09:19:25;;;;;;;2.30;2.05;;;24.00;99.90;;;;;;5039958;28;20068;-86
2022/06/08 09:22:03;;;;;;;2.20;1.63;;;23.80;99.90;;;;;;5034830;28;20048;-85
2022/06/08 09:24:40;;;;;;;2.85;1.60;;;23.90;99.90;;;;;;5035409;28;20048;-85
2022/06/08 09:27:16;;;;;;;2.33;1.40;;;23.90;99.90;;;;;;5035202;28;20048;-86
2022/06/08 09:29:56;;;;;;;3.13;2.15;;;23.80;99.20;;;;;;5034930;28;20041;-84
2022/06/08 09:32:33;;;;;;;2.72;2.38;;;23.70;98.30;;;;;;5034754;28;20052;-86
2022/06/08 09:35:26;;;;;;;2.60;0.98;;;23.60;99.90;;;;;;5034753;28;20124;-85
2022/06/08 09:37:54;;;;;;;2.15;1.60;;;23.60;99.90;;;;;;5034478;28;20044;-84
2022/06/08 09:40:38;;;;;;;3.70;1.88;;;23.30;99.90;;;;;;5018171;28;20398;-85
2022/06/08 09:43:33;;;;;;;2.55;1.63;;;23.20;99.90;;;;;;5034544;28;20029;-85
2022/06/08 09:52:46;;;;;;;1.15;0.70;;;22.90;99.90;;;;;;5054397;28;20079;-85
2022/06/08 09:55:20;;;;;;;3.63;0.85;;;23.20;99.90;;;;;;5054177;28;20044;-86
2022/06/08 09:58:20;;;;;;;1.52;0.65;;;23.60;99.90;;;;;;5054053;28;20498;-84
2022/06/08 10:01:18;;;;;;;2.35;0.82;;;23.70;99.90;;;;;;5054795;28;20096;-84
2022/06/08 10:04:02;;;;;;;2.13;0.60;;;23.50;99.40;;;;;;5054611;28;20047;-84
2022/06/08 10:06:49;;;;;;;2.58;0.98;;;23.00;96.90;;;;;;5054619;28;20044;-83
2022/06/08 10:09:35;;;;;;;2.25;0.80;;;22.50;98.90;;;;;;5054769;28;20052;-84
2022/06/08 10:12:07;;;;;;;4.32;0.80;;;22.20;99.90;;;;;;5054196;28;20046;-84
2022/06/08 10:14:51;;;;;;;2.50;0.80;;;22.10;99.90;;;;;;5055643;28;20051;-84
2022/06/08 10:17:26;;;;;;;2.97;0.47;;;22.40;99.90;;;;;;5051245;28;20052;-84
2022/06/08 10:19:52;;;;;;;;;;;22.80;99.90;;;;;;5054967;28;20457;-83
2022/06/08 10:22:19;;;;;;;1.63;0.60;;;23.00;99.90;;;;;;5055203;28;19963;-84
2022/06/08 10:25:22;;;;;;;1.95;0.40;;;23.20;99.90;;;;;;5054331;28;20044;-85
2022/06/08 10:28:04;;;;;;;1.38;0.52;;;23.50;99.90;;;;;;5053549;28;20482;-84
2022/06/08 10:30:51;;;;;;;2.72;0.63;;;24.20;99.90;;;;;;5054379;28;20068;-84
2022/06/08 10:34:02;;;;;;;1.88;0.80;;;24.40;99.90;;;;;;5053822;28;20041;-85
2022/06/08 10:36:31;;;;;;;4.03;0.77;;;24.60;97.80;;;;;;5028767;28;20052;-85
2022/06/08 10:39:01;;;;;;;2.20;0.80;;;24.70;99.90;;;;;;5053164;28;20128;-85
2022/06/08 10:44:28;;;;;;;3.33;1.02;;;24.90;96.80;;;;;;5051247;28;20044;-85
2022/06/08 10:46:54;;;;;;;1.27;0.70;;;25.20;94.60;;;;;;5038133;28;20044;-85
2022/06/08 10:49:32;;;;;;;6.13;0.90;;;25.40;95.50;;;;;;5045299;28;20036;-84
2022/06/08 10:52:19;;;;;;;3.20;1.40;;;25.50;92.50;;;;;;5033724;28;20505;-85
2022/06/08 10:54:54;;;;;;;1.45;0.95;;;25.60;91.50;;;;;;5039136;28;20105;-85
2022/06/08 10:57:43;;;;;;;1.58;0.90;;;25.90;93.20;;;;;;5038307;28;20040;-84
2022/06/08 11:00:21;;;;;;;2.85;0.82;;;26.40;91.10;;;;;;5043114;28;20045;-84
2022/06/08 11:02:54;;;;;;;5.43;1.15;;;26.60;88.90;;;;;;5054240;28;20071;-84
2022/06/08 11:05:42;;;;;;;2.90;1.02;;;26.50;90.40;;;;;;5043168;28;20468;-84
2022/06/08 11:08:07;;;;;;;2.17;0.70;;;26.80;90.30;;;;;;5053146;28;20044;-84
2022/06/08 11:10:49;;;;;;;3.40;0.60;;;27.00;90.00;;;;;;5024113;28;20518;-85
2022/06/08 11:13:21;;;;;;;3.20;0.68;;;27.20;83.00;;;;;;5033610;28;20055;-84
2022/06/08 11:16:01;;;;;;;2.70;0.70;;;27.00;83.00;;;;;;5033640;28;20049;-85
2022/06/08 11:18:45;;;;;;;1.35;0.50;;;26.70;82.60;;;;;;5024756;28;20033;-84
2022/06/08 11:21:14;;;;;;;2.47;0.73;;;26.60;82.60;;;;;;5051168;28;20033;-84
2022/06/08 11:23:42;;;;;;;1.38;0.60;;;26.70;84.60;;;;;;5055980;28;20059;-85
2022/06/08 11:26:19;;;;;;;1.77;0.55;;;26.80;84.60;;;;;;5052914;28;20119;-85
2022/06/08 11:28:48;;;;;;;1.58;0.70;;;26.70;81.70;;;;;;5036279;28;20109;-84
2022/06/08 11:31:28;;;;;;;2.05;0.73;;;26.50;84.40;;;;;;5054326;28;20045;-84
2022/06/08 11:34:12;;;;;;;9.35;7.13;;;26.50;79.60;;;;;;5031935;28;20506;-85
2022/06/08 11:36:43;;;;;;;16.02;12.48;;;26.40;84.10;;;;;;5053657;28;20110;-84
2022/06/08 11:39:40;;;;;;;287.52;222.57;;;26.40;84.60;;;;;;5048366;28;20081;-85
2022/06/08 11:42:14;;;;;;;87.03;71.32;;;26.50;78.70;;;;;;5060360;28;20501;-84
2022/06/08 11:44:51;;;;;;;;;;;26.40;81.00;;;;;;5073912;28;20389;-84
2022/06/08 11:47:36;;;;;;;41.75;37.40;;;26.40;79.40;;;;;;5076733;28;20301;-84
2022/06/08 11:50:11;;;;;;;6.00;5.43;;;26.60;81.60;;;;;;5053652;28;20046;-85
2022/06/08 11:52:44;;;;;;;2.40;2.20;;;26.90;81.70;;;;;;5056973;28;20071;-85
2022/06/08 11:55:57;;;;;;;5.28;2.15;;;27.10;79.60;;;;;;5054864;28;20064;-84
2022/06/08 12:10:40;;;;;;;;;;;;;;;;;;;;;
2022/06/08 12:22:08;;;;;;;5.45;2.00;;;23.40;86.40;;;;;;4933856;29;20095;-82
2022/06/08 12:44:25;;;;;;;3.58;0.98;;;20.30;99.90;;;;;;5058525;22;20573;-81
2022/06/08 12:46:59;;;;;;;4.35;0.75;;;19.60;99.90;;;;;;5048270;28;20056;-80
2022/06/08 12:49:40;;;;;;;7.30;1.55;;;18.50;99.90;;;;;;5048263;28;20037;-82
2022/06/08 12:52:21;;;;;;;5.65;1.05;;;17.80;99.90;;;;;;5057126;28;20033;-81
2022/06/08 12:54:48;;;;;;;3.10;0.50;;;17.10;99.90;;;;;;5050541;28;20483;-81
2022/06/08 12:57:18;;;;;;;2.80;0.52;;;16.70;99.90;;;;;;5051874;28;20099;-82
2022/06/08 12:59:47;;;;;;;3.70;0.73;;;16.50;99.90;;;;;;5052827;28;20033;-81
2022/06/08 13:02:22;;;;;;;5.28;1.00;;;16.30;99.90;;;;;;5054644;28;20041;-81
2022/06/08 13:04:49;;;;;;;4.25;1.00;;;16.20;99.90;;;;;;5051250;28;20036;-81
2022/06/08 13:07:21;;;;;;;3.78;1.23;;;16.20;99.90;;;;;;5055026;28;20051;-83
2022/06/08 13:09:48;;;;;;;7.07;1.45;;;16.20;99.90;;;;;;5054834;28;20025;-82
2022/06/08 13:12:20;;;;;;;4.88;1.13;;;16.20;99.90;;;;;;5056095;28;20056;-82
2022/06/08 13:14:46;;;;;;;5.78;1.10;;;16.30;99.90;;;;;;5040210;28;20047;-83
2022/06/08 13:17:12;;;;;;;4.18;0.95;;;16.40;99.90;;;;;;5057725;28;20072;-83
2022/06/08 13:19:38;;;;;;;5.45;1.30;;;16.40;99.90;;;;;;5047639;28;20028;-83
2022/06/08 13:22:05;;;;;;;4.28;1.02;;;16.40;99.90;;;;;;5056422;28;20032;-83
2022/06/08 13:24:30;;;;;;;2.60;1.30;;;16.40;99.90;;;;;;5056193;28;20095;-83
2022/06/08 13:26:56;;;;;;;3.88;1.58;;;16.50;99.90;;;;;;5080419;22;20036;-82
2022/06/08 13:29:22;;;;;;;4.28;1.80;;;16.60;99.90;;;;;;5068778;28;20041;-85
2022/06/08 13:32:06;;;;;;;8.35;2.78;;;16.70;99.90;;;;;;5066345;28;20097;-83
2022/06/08 13:35:02;;;;;;;6.00;2.00;;;16.80;99.90;;;;;;5058962;28;20044;-82
2022/06/08 13:38:02;;;;;;;5.53;2.75;;;16.80;99.90;;;;;;5070465;28;20036;-81
2022/06/08 13:40:29;;;;;;;7.35;2.63;;;16.80;99.90;;;;;;5067641;28;20086;-82
2022/06/08 13:42:58;;;;;;;6.22;3.65;;;16.80;99.90;;;;;;5067037;28;20037;-84
2022/06/08 13:45:28;;;;;;;5.63;3.60;;;16.90;99.90;;;;;;5074002;28;20044;-81
2022/06/08 13:47:57;;;;;;;7.30;5.28;;;16.90;99.90;;;;;;5069375;28;20059;-82
2022/06/08 13:50:28;;;;;;;6.45;4.22;;;17.00;99.90;;;;;;5073178;28;20036;-81
2022/06/08 13:52:54;;;;;;;7.97;4.47;;;17.00;99.90;;;;;;5075378;28;20185;-80
2022/06/08 13:55:28;;;;;;;7.00;4.55;;;17.20;99.90;;;;;;5074870;28;20037;-81
2022/06/08 13:57:55;;;;;;;8.45;4.40;;;17.40;99.90;;;;;;5056999;28;20071;-81
2022/06/08 14:00:22;;;;;;;8.00;4.68;;;17.60;99.90;;;;;;5070995;28;20371;-81
2022/06/08 14:02:53;;;;;;;9.32;4.20;;;17.80;99.90;;;;;;5067552;28;20048;-83
2022/06/08 14:12:59;;;;;;;7.88;4.55;;;18.00;99.90;;;;;;5072633;28;20036;-80
2022/06/08 14:13:42;;;;;;;7.45;4.25;;;18.30;99.90;;;;;;5077043;28;20478;-84
2022/06/08 14:16:08;;;;;;;8.48;3.42;;;18.20;99.90;;;;;;5078541;28;20040;-81
2022/06/08 14:18:41;;;;;;;7.20;2.67;;;18.20;99.90;;;;;;5060899;28;20100;-79
2022/06/08 14:21:07;;;;;;;4.97;2.65;;;18.10;99.90;;;;;;5071215;28;20032;-81
2022/06/08 14:23:33;;;;;;;7.38;3.35;;;18.00;99.90;;;;;;5071069;28;20090;-83
2022/06/08 14:25:59;;;;;;;6.05;2.60;;;17.90;99.90;;;;;;5069655;28;20106;-81
2022/06/08 14:28:25;;;;;;;5.75;3.22;;;17.80;99.90;;;;;;5060328;28;20040;-80
2022/06/08 14:30:53;;;;;;;6.07;2.80;;;17.80;99.90;;;;;;5074479;28;20047;-80
2022/06/08 14:33:24;;;;;;;50.55;34.67;;;17.80;99.90;;;;;;5075819;28;20040;-81
2022/06/08 14:35:51;;;;;;;128.52;82.55;;;17.90;99.90;;;;;;5077344;28;20041;-82
2022/06/08 14:38:22;;;;;;;8.77;4.03;;;17.80;99.90;;;;;;5052492;28;20043;-81
2022/06/08 14:40:49;;;;;;;76.13;56.63;;;17.80;99.90;;;;;;5064010;28;20135;-82
2022/06/08 14:43:17;;;;;;;56.08;42.03;;;17.70;99.90;;;;;;5070381;28;20028;-81
2022/06/08 14:45:44;;;;;;;68.35;50.13;;;17.60;99.90;;;;;;5067769;28;20044;-80
2022/06/08 14:48:19;;;;;;;17.13;12.35;;;17.60;99.90;;;;;;5073496;28;20057;-81
2022/06/08 14:50:47;;;;;;;7.38;4.30;;;17.50;99.90;;;;;;5071866;28;20041;-80
2022/06/08 14:53:15;;;;;;;8.15;4.15;;;17.50;99.90;;;;;;5058872;28;20083;-80
2022/06/08 14:58:26;;;;;;;10.15;5.50;;;17.30;99.90;;;;;;5066746;28;20045;-81
2022/06/08 15:00:52;;;;;;;9.63;6.15;;;17.20;99.90;;;;;;5074940;28;20033;-81
2022/06/08 15:03:22;;;;;;;7.95;4.28;;;17.20;99.90;;;;;;5071922;28;20036;-81
2022/06/08 15:05:48;;;;;;;49.33;33.67;;;17.20;99.90;;;;;;5067879;28;20087;-82
2022/06/08 15:08:16;;;;;;;28.60;19.98;;;17.20;99.90;;;;;;5072668;28;20028;-81
2022/06/08 15:13:28;;;;;;;;;;;17.20;99.90;;;;;;5075692;28;20040;-84
2022/06/08 15:15:54;;;;;;;15.07;9.60;;;17.20;99.90;;;;;;5075304;28;19928;-83
2022/06/08 15:18:20;;;;;;;18.10;12.93;;;17.30;99.90;;;;;;5068783;28;20063;-83
2022/06/08 15:20:47;;;;;;;6.32;2.63;;;17.40;99.90;;;;;;5055968;28;20033;-83
2022/06/08 15:23:13;;;;;;;16.80;9.82;;;17.40;99.90;;;;;;5046921;28;20092;-83
2022/06/08 15:25:51;;;;;;;14.20;9.43;;;17.50;99.90;;;;;;5078228;28;20044;-83
2022/06/08 15:28:20;;;;;;;7.28;4.10;;;17.60;99.90;;;;;;5071071;28;20521;-83
2022/06/08 15:30:47;;;;;;;4.18;2.65;;;17.70;99.90;;;;;;5076817;28;20043;-82